Time;durP1;ratioP1;P1;durP2;ratioP2;P2;SDS_P1;SDS_P2;PMS_P1;PMS_P2;Temp;Humidity;BMP_temperature;BMP_pressure;BME280_temperature;BME280_humidity;BME280_pressure;Samples;Min_cycle;Max_cycle;Signal;HPM_P1;HPM_P2
2021/11/21 11:00:29;;;;;;;8.98;6.20;;;;;;;9.28;64.07;95528.16;6291343;22;1412000;-93
2021/11/21 11:02:54;;;;;;;7.10;5.95;;;;;;;9.25;63.63;95499.28;6340775;22;20007;-93
2021/11/21 11:05:22;;;;;;;8.52;5.80;;;;;;;9.41;63.40;95528.59;6340895;22;20002;-92
2021/11/21 11:07:47;;;;;;;7.13;5.93;;;;;;;9.38;63.91;95526.09;6340598;22;20071;-92
2021/11/21 11:10:39;;;;;;;7.05;5.28;;;;;;;9.41;63.63;95520.47;6340475;22;20082;-95
2021/11/21 11:13:17;;;;;;;6.43;5.50;;;;;;;9.11;64.28;95492.69;6340108;22;20006;-94
2021/11/21 11:15:45;;;;;;;6.95;6.18;;;;;;;9.13;64.01;95516.59;6340700;22;20003;-94
2021/11/21 11:18:12;;;;;;;7.15;5.85;;;;;;;9.07;64.07;95477.81;6340336;22;20007;-94
2021/11/21 11:20:49;;;;;;;13.20;6.03;;;;;;;9.22;65.00;95481.28;6340581;22;20081;-94
2021/11/21 11:23:20;;;;;;;9.32;6.15;;;;;;;9.35;64.50;95497.97;6340373;22;20073;-94
2021/11/21 11:25:46;;;;;;;8.50;5.72;;;;;;;9.38;63.47;95496.28;6340451;22;19999;-94
2021/11/21 11:28:24;;;;;;;7.80;5.70;;;;;;;9.22;63.04;95465.00;6340576;22;20003;-96
2021/11/21 11:30:50;;;;;;;9.00;5.93;;;;;;;9.33;63.39;95469.84;6340431;22;20006;-94
2021/11/21 11:33:24;;;;;;;9.40;6.32;;;;;;;9.45;63.70;95480.38;6340108;22;20430;-94
2021/11/21 11:35:53;;;;;;;7.35;5.97;;;;;;;9.30;63.95;95457.22;6340148;22;20003;-95
2021/11/21 11:38:20;;;;;;;6.30;5.47;;;;;;;9.55;63.40;95481.00;6339846;22;20003;-93
2021/11/21 11:40:56;;;;;;;7.22;5.88;;;;;;;9.61;63.24;95481.09;6340112;22;20014;-94
2021/11/21 11:43:27;;;;;;;7.28;6.00;;;;;;;9.50;63.40;95478.22;6340560;22;20040;-94
2021/11/21 11:45:55;;;;;;;6.88;5.82;;;;;;;9.32;63.65;95449.38;6340603;22;19999;-95
2021/11/21 11:48:47;;;;;;;521.97;41.35;;;;;;;9.55;63.67;95472.13;6340573;22;20326;-93
2021/11/21 11:51:21;;;;;;;1981.97;173.25;;;;;;;9.47;63.71;95465.59;6340423;22;20003;-93
2021/11/21 11:53:50;;;;;;;1829.05;153.15;;;;;;;9.46;64.39;95456.72;6340098;22;20469;-94
2021/11/21 11:56:24;;;;;;;113.55;13.90;;;;;;;9.48;63.50;95465.16;6340174;22;20015;-94
2021/11/21 11:58:56;;;;;;;408.67;29.98;;;;;;;9.52;63.48;95462.97;6339769;22;20022;-95
2021/11/21 12:01:38;;;;;;;482.85;33.90;;;;;;;9.61;63.67;95462.84;6344340;22;20068;-96
2021/11/21 12:04:12;;;;;;;14.98;6.40;;;;;;;9.63;63.87;95460.41;6345751;22;20006;-95
2021/11/21 12:06:43;;;;;;;7.15;5.72;;;;;;;9.70;63.65;95459.28;6340639;22;20029;-95
2021/11/21 12:09:25;;;;;;;6.80;5.93;;;;;;;9.58;63.65;95454.91;6346457;22;19999;-96
2021/11/21 12:12:01;;;;;;;6.45;5.75;;;;;;;9.69;63.61;95463.97;6346373;22;20445;-94
2021/11/21 12:14:46;;;;;;;7.60;6.50;;;;;;;9.45;63.14;95433.56;6343960;22;20471;-95
2021/11/21 12:17:16;;;;;;;7.25;5.88;;;;;;;9.58;63.14;95436.69;6340139;22;20016;-95
2021/11/21 12:19:57;;;;;;;7.00;5.60;;;;;;;9.66;63.30;95451.34;6342050;22;20034;-96
2021/11/21 12:22:29;;;;;;;9.23;6.28;;;;;;;9.69;63.05;95450.41;6343336;22;20003;-94
2021/11/21 12:24:57;;;;;;;9.35;7.07;;;;;;;9.77;63.28;95447.28;6339846;22;20056;-96
2021/11/21 12:27:26;;;;;;;11.27;9.07;;;;;;;9.66;63.93;95445.91;6339904;22;20438;-94
2021/11/21 12:30:12;;;;;;;9.63;7.93;;;;;;;9.58;64.13;95422.38;6339768;22;20064;-94
2021/11/21 12:32:45;;;;;;;8.52;6.72;;;;;;;9.14;64.04;95415.13;6340113;22;20435;-94
2021/11/21 12:35:31;;;;;;;9.40;6.32;;;;;;;9.16;64.86;95409.97;6339941;22;20086;-95
2021/11/21 12:37:58;;;;;;;13.20;7.30;;;;;;;9.23;64.84;95423.16;6313624;22;20003;-94
2021/11/21 12:40:54;;;;;;;9.52;6.57;;;;;;;9.23;64.69;95444.81;6339750;22;20009;-93
2021/11/21 12:43:22;;;;;;;9.07;7.57;;;;;;;9.07;64.84;95418.97;6323428;22;20030;-94
2021/11/21 12:45:51;;;;;;;8.82;6.43;;;;;;;9.07;64.82;95416.25;6339653;22;20002;-93
2021/11/21 12:48:22;;;;;;;7.85;6.68;;;;;;;9.00;65.73;95394.22;6340123;22;20027;-95
2021/11/21 12:51:05;;;;;;;8.10;6.40;;;;;;;9.24;64.79;95405.66;6339929;22;20006;-94
2021/11/21 12:53:38;;;;;;;9.10;6.80;;;;;;;9.34;65.09;95419.84;6339787;22;20011;-94
2021/11/21 12:56:06;;;;;;;9.25;6.90;;;;;;;9.42;64.35;95435.22;6339907;22;20487;-95
2021/11/21 12:58:38;;;;;;;10.13;6.82;;;;;;;9.38;64.27;95407.59;6339205;22;20066;-94
2021/11/21 13:01:08;;;;;;;7.47;6.25;;;;;;;9.68;64.60;95429.91;6339663;22;20013;-94
2021/11/21 13:03:34;;;;;;;8.52;6.90;;;;;;;9.55;64.54;95399.69;6340418;22;20003;-93
2021/11/21 13:06:07;;;;;;;8.32;6.50;;;;;;;9.79;63.15;95434.00;6339239;22;20450;-95
2021/11/21 13:08:38;;;;;;;9.10;6.80;;;;;;;9.56;62.74;95395.00;6339316;22;20026;-95
2021/11/21 13:11:10;;;;;;;8.77;7.15;;;;;;;9.52;63.37;95403.34;6339685;22;20007;-94
2021/11/21 13:13:38;;;;;;;7.45;6.00;;;;;;;9.53;62.64;95395.94;6339523;22;20003;-95
2021/11/21 13:16:31;;;;;;;10.30;6.70;;;;;;;9.64;63.16;95421.25;6339232;22;20010;-93
2021/11/21 13:18:57;;;;;;;8.85;6.07;;;;;;;9.45;63.85;95387.47;6333762;22;19998;-93
2021/11/21 13:21:34;;;;;;;124.40;12.63;;;;;;;9.64;64.21;95401.50;6339630;22;20006;-95
2021/11/21 13:24:03;;;;;;;22.27;6.88;;;;;;;9.58;63.00;95384.44;6339415;22;20003;-94
2021/11/21 13:26:29;;;;;;;29.65;7.45;;;;;;;9.50;63.46;95380.66;6339439;22;19998;-94
2021/11/21 13:29:00;;;;;;;102.53;13.57;;;;;;;9.70;63.94;95405.81;6339485;22;19998;-93
2021/11/21 13:31:32;;;;;;;;;;;;;;;9.85;64.29;95422.00;6339994;22;20003;-93
2021/11/21 13:34:10;;;;;;;60.72;9.90;;;;;;;9.60;63.88;95374.63;6339517;22;19902;-94
2021/11/21 13:36:37;;;;;;;11.77;6.78;;;;;;;9.79;62.94;95404.91;6339489;22;20006;-94
2021/11/21 13:39:18;;;;;;;23.17;7.95;;;;;;;9.62;63.89;95396.56;6339755;22;20006;-93
2021/11/21 13:42:03;;;;;;;32.42;7.90;;;;;;;9.76;64.01;95408.59;6339448;22;20007;-95
2021/11/21 13:44:31;;;;;;;63.70;9.70;;;;;;;9.81;64.38;95407.91;6339352;22;20006;-93
2021/11/21 13:47:11;;;;;;;12.07;7.10;;;;;;;9.75;63.83;95409.81;6339255;22;20014;-96
2021/11/21 13:49:42;;;;;;;81.47;12.07;;;;;;;9.80;64.21;95414.56;6339243;22;20006;-93
2021/11/21 13:52:11;;;;;;;53.95;9.13;;;;;;;9.74;64.58;95391.28;6339124;22;20335;-93
2021/11/21 13:54:41;;;;;;;43.65;8.57;;;;;;;9.77;64.13;95401.94;6339122;22;20007;-94
2021/11/21 13:57:39;;;;;;;;;;;;;;;9.77;64.15;95412.78;6339845;22;20106;-95
2021/11/21 14:00:15;;;;;;;17.50;8.00;;;;;;;9.49;63.79;95371.78;6309644;22;20373;-94
2021/11/21 14:02:42;;;;;;;48.40;9.18;;;;;;;9.58;64.45;95411.53;6338947;22;20423;-94
2021/11/21 14:05:11;;;;;;;29.95;7.57;;;;;;;9.34;63.92;95374.53;6338964;22;20007;-94
2021/11/21 14:07:52;;;;;;;18.58;9.25;;;;;;;9.37;65.03;95386.38;6339085;22;20003;-94
2021/11/21 14:10:18;;;;;;;59.88;13.23;;;;;;;9.27;64.42;95385.78;6339132;22;20372;-94
2021/11/21 14:12:43;;;;;;;48.03;13.02;;;;;;;9.19;64.67;95385.41;6339125;22;20034;-95
2021/11/21 14:15:12;;;;;;;25.48;10.52;;;;;;;9.40;64.87;95410.56;6339073;22;20331;-95
2021/11/21 14:17:44;;;;;;;24.98;10.45;;;;;;;9.23;64.74;95415.03;6338944;22;20003;-94
2021/11/21 14:20:27;;;;;;;12.57;9.15;;;;;;;9.12;64.12;95391.22;6339234;22;20009;-93
2021/11/21 14:23:08;;;;;;;14.88;10.23;;;;;;;8.98;64.18;95378.44;6339110;22;20030;-95
2021/11/21 14:25:37;;;;;;;13.65;9.93;;;;;;;9.10;64.04;95412.59;6338993;22;20007;-94
2021/11/21 14:28:10;;;;;;;13.48;9.73;;;;;;;8.77;64.77;95377.63;6339097;22;19999;-94
2021/11/21 14:30:44;;;;;;;10.50;7.85;;;;;;;8.84;64.25;95384.63;6339273;22;19998;-93
2021/11/21 14:33:30;;;;;;;12.95;8.18;;;;;;;8.82;65.18;95420.31;6338904;22;20462;-94
2021/11/21 14:36:02;;;;;;;13.50;7.75;;;;;;;8.74;64.54;95408.38;6338884;22;20415;-95
2021/11/21 14:38:29;;;;;;;11.93;7.70;;;;;;;8.60;64.88;95398.28;6338959;22;20006;-94
2021/11/21 14:41:03;;;;;;;40.25;9.88;;;;;;;8.46;64.97;95386.22;6338792;22;20423;-96
2021/11/21 14:43:30;;;;;;;63.00;11.63;;;;;;;8.52;65.29;95406.03;6341098;22;20010;-96
2021/11/21 14:45:56;;;;;;;13.50;9.52;;;;;;;8.49;65.67;95417.78;6338895;22;20427;-94
2021/11/21 14:48:34;;;;;;;12.73;9.38;;;;;;;8.39;66.47;95421.78;6338763;22;19995;-96
2021/11/21 14:51:00;;;;;;;13.15;9.77;;;;;;;8.49;66.55;95444.84;6339115;22;20003;-95
2021/11/21 14:53:27;;;;;;;15.32;10.95;;;;;;;8.59;66.25;95440.84;6339182;22;20335;-95
2021/11/21 14:55:58;;;;;;;28.30;12.52;;;;;;;8.34;67.67;95412.31;6338838;22;20086;-95
2021/11/21 14:58:31;;;;;;;305.75;26.27;;;;;;;8.44;66.67;95437.38;6338591;22;19999;-95
2021/11/21 15:00:59;;;;;;;26.27;10.13;;;;;;;8.22;67.04;95401.78;6338909;22;20006;-93
2021/11/21 15:03:25;;;;;;;14.93;8.30;;;;;;;8.19;66.40;95391.88;6338615;22;20081;-94
2021/11/21 15:05:52;;;;;;;11.18;8.80;;;;;;;8.44;66.41;95423.09;6338842;22;20003;-95
2021/11/21 15:08:19;;;;;;;14.95;9.18;;;;;;;8.42;67.23;95399.22;6338697;22;20003;-95
2021/11/21 15:10:44;;;;;;;14.82;8.90;;;;;;;8.27;65.68;95371.38;6339203;22;20006;-94
2021/11/21 15:13:10;;;;;;;12.35;9.02;;;;;;;8.58;66.00;95428.53;6340619;22;20002;-93
2021/11/21 15:15:36;;;;;;;14.02;10.43;;;;;;;8.46;66.45;95417.97;6340374;22;20085;-95
2021/11/21 15:18:02;;;;;;;13.35;10.05;;;;;;;8.33;66.16;95407.38;6340462;22;19998;-95
2021/11/21 15:20:27;;;;;;;11.95;9.85;;;;;;;8.53;66.32;95441.97;6340474;22;20010;-94
2021/11/21 15:22:52;;;;;;;11.32;9.35;;;;;;;8.32;65.35;95408.59;6340631;22;20003;-95
2021/11/21 15:25:18;;;;;;;29.13;9.95;;;;;;;8.25;66.64;95412.41;6340530;22;20003;-93
2021/11/21 15:27:43;;;;;;;23.60;8.63;;;;;;;8.37;66.16;95413.41;6340351;22;20002;-96
2021/11/21 15:30:09;;;;;;;12.30;9.35;;;;;;;8.33;65.01;95408.13;6340402;22;20003;-96
2021/11/21 15:32:36;;;;;;;9.80;8.60;;;;;;;8.19;66.71;95400.72;6340757;22;20089;-94
2021/11/21 15:35:03;;;;;;;12.32;9.85;;;;;;;8.12;67.44;95393.75;6340836;22;20068;-94
2021/11/21 15:37:29;;;;;;;15.10;11.65;;;;;;;8.25;68.11;95408.94;6340560;22;19998;-96
2021/11/21 15:39:55;;;;;;;76.13;12.63;;;;;;;8.22;68.39;95407.19;6341229;22;20029;-95
2021/11/21 15:42:20;;;;;;;11.63;9.82;;;;;;;8.14;68.92;95414.91;6340745;22;20339;-95
2021/11/21 15:44:46;;;;;;;12.02;9.65;;;;;;;8.14;69.34;95407.53;6341296;22;20006;-94
2021/11/21 15:47:11;;;;;;;12.40;9.85;;;;;;;8.08;68.89;95409.38;6341519;22;20010;-96
2021/11/21 15:49:51;;;;;;;13.48;10.10;;;;;;;8.10;68.93;95420.50;6354948;22;20025;-94
2021/11/21 15:52:17;;;;;;;13.43;10.23;;;;;;;7.97;69.94;95408.44;6347170;22;20007;-94
2021/11/21 15:54:42;;;;;;;13.30;10.60;;;;;;;8.04;70.16;95413.47;6341041;22;20507;-95
2021/11/21 15:57:10;;;;;;;15.10;12.70;;;;;;;8.01;69.06;95406.31;6340956;22;20002;-95
2021/11/21 15:59:36;;;;;;;14.48;11.90;;;;;;;7.91;69.62;95394.81;6341397;22;20042;-95
2021/11/21 16:02:01;;;;;;;17.00;13.02;;;;;;;8.07;69.26;95428.78;6341729;22;20009;-96
2021/11/21 16:04:27;;;;;;;16.67;12.43;;;;;;;7.98;70.33;95418.03;6340234;22;20003;-95
2021/11/21 16:06:52;;;;;;;15.27;12.13;;;;;;;7.83;70.36;95401.81;6339975;22;20007;-95
2021/11/21 16:09:24;;;;;;;17.88;12.70;;;;;;;7.75;70.24;95393.28;6339987;22;19998;-94
2021/11/21 16:11:51;;;;;;;16.65;12.73;;;;;;;7.69;70.35;95399.78;6339873;22;20038;-94
2021/11/21 16:14:17;;;;;;;16.33;12.70;;;;;;;7.88;69.97;95415.44;6340305;22;20017;-95
2021/11/21 16:16:42;;;;;;;15.93;12.63;;;;;;;7.65;70.34;95410.00;6340328;22;20053;-94
2021/11/21 16:19:08;;;;;;;18.95;15.43;;;;;;;7.78;70.49;95421.34;6339782;22;19999;-96
2021/11/21 16:21:33;;;;;;;16.20;12.60;;;;;;;7.58;70.86;95428.06;6339870;22;20132;-94
2021/11/21 16:23:59;;;;;;;17.23;13.63;;;;;;;7.53;71.75;95422.56;6339778;22;20027;-94
2021/11/21 16:26:25;;;;;;;18.15;13.68;;;;;;;7.49;70.99;95401.09;6340267;22;20453;-95
2021/11/21 16:28:51;;;;;;;30.23;20.35;;;;;;;7.79;70.39;95437.09;6339975;22;20003;-96
2021/11/21 16:31:17;;;;;;;41.65;26.48;;;;;;;7.61;70.51;95423.69;6340226;22;20419;-95
2021/11/21 16:33:52;;;;;;;38.60;24.65;;;;;;;7.68;70.91;95447.69;6341272;22;20085;-96
2021/11/21 16:36:18;;;;;;;26.77;16.88;;;;;;;7.55;70.30;95420.88;6340672;22;20466;-96
2021/11/21 16:38:45;;;;;;;38.50;23.73;;;;;;;7.51;70.86;95427.66;6339916;22;20003;-95
2021/11/21 16:41:11;;;;;;;37.22;23.20;;;;;;;7.58;70.00;95424.63;6339733;22;20018;-94
2021/11/21 16:43:36;;;;;;;47.72;25.08;;;;;;;7.56;69.89;95432.44;6340066;22;20011;-96
2021/11/21 16:46:02;;;;;;;50.65;29.42;;;;;;;7.32;70.42;95413.50;6339614;22;20006;-95
2021/11/21 16:48:28;;;;;;;30.70;18.73;;;;;;;7.35;70.50;95421.47;6339764;22;20007;-95
2021/11/21 16:50:54;;;;;;;34.88;19.65;;;;;;;7.42;70.34;95438.53;6339948;22;19998;-95
2021/11/21 16:53:22;;;;;;;50.47;26.52;;;;;;;7.24;69.87;95404.22;6339886;22;20006;-96
2021/11/21 16:55:48;;;;;;;22.40;13.75;;;;;;;7.43;69.87;95435.38;6339967;22;20038;-95
2021/11/21 16:58:14;;;;;;;21.40;14.25;;;;;;;7.13;70.01;95412.84;6339739;22;20003;-95
2021/11/21 17:00:40;;;;;;;28.05;16.40;;;;;;;7.26;70.60;95423.44;6339477;22;20026;-95
2021/11/21 17:03:06;;;;;;;27.25;17.48;;;;;;;7.44;70.04;95461.16;6339773;22;20132;-95
2021/11/21 17:05:33;;;;;;;25.92;15.80;;;;;;;7.16;70.43;95438.94;6339753;22;20019;-94
2021/11/21 17:07:58;;;;;;;15.55;11.07;;;;;;;7.14;70.57;95433.25;6339638;22;19995;-95
2021/11/21 17:10:24;;;;;;;21.95;13.55;;;;;;;7.15;69.97;95440.16;6339515;22;20090;-95
2021/11/21 17:12:49;;;;;;;18.17;11.82;;;;;;;7.15;70.90;95437.44;6339769;22;20511;-95
2021/11/21 17:15:15;;;;;;;18.35;12.05;;;;;;;6.93;70.62;95447.75;6339281;22;20055;-95
2021/11/21 17:17:41;;;;;;;17.98;11.48;;;;;;;6.80;71.10;95453.31;6339327;22;20007;-96
2021/11/21 17:20:09;;;;;;;15.05;9.80;;;;;;;6.66;71.47;95429.66;6339337;22;20006;-95
2021/11/21 17:22:35;;;;;;;19.95;13.00;;;;;;;6.60;71.71;95426.06;6339525;22;20003;-96
2021/11/21 17:25:01;;;;;;;24.58;15.57;;;;;;;6.54;72.04;95442.84;6339693;22;20009;-95
2021/11/21 17:27:28;;;;;;;27.67;17.63;;;;;;;6.70;72.76;95468.03;6339550;22;20068;-95
2021/11/21 17:29:54;;;;;;;34.38;21.02;;;;;;;6.82;71.85;95464.41;6339475;22;20000;-96
2021/11/21 17:32:20;;;;;;;21.50;14.13;;;;;;;6.78;71.88;95444.94;6339796;22;20007;-95
2021/11/21 17:34:49;;;;;;;22.55;14.60;;;;;;;6.57;72.40;95433.88;6339089;22;20038;-96
2021/11/21 17:37:18;;;;;;;21.80;14.07;;;;;;;6.75;71.78;95459.31;6340277;22;19999;-95
2021/11/21 17:39:43;;;;;;;27.75;17.20;;;;;;;6.73;72.26;95450.94;6339253;22;20003;-95
2021/11/21 17:42:09;;;;;;;18.60;14.38;;;;;;;6.96;73.15;95479.97;6339419;22;20037;-94
2021/11/21 17:44:34;;;;;;;21.33;16.08;;;;;;;6.93;72.88;95467.38;6339319;22;20013;-96
2021/11/21 17:47:00;;;;;;;22.40;16.33;;;;;;;6.85;73.01;95458.09;6339590;22;19998;-95
2021/11/21 17:49:25;;;;;;;25.73;17.48;;;;;;;6.77;73.20;95463.06;6339385;22;20073;-96
2021/11/21 17:51:51;;;;;;;19.48;15.25;;;;;;;6.56;73.50;95434.34;6343949;22;20003;-96
2021/11/21 17:54:17;;;;;;;26.20;16.88;;;;;;;6.76;73.57;95477.75;6339351;22;20431;-95
2021/11/21 17:56:42;;;;;;;34.28;21.27;;;;;;;6.69;73.54;95443.00;6342203;22;20010;-96
2021/11/21 17:59:08;;;;;;;53.25;31.17;;;;;;;6.78;73.96;95463.81;6342305;22;20110;-96
2021/11/21 18:01:34;;;;;;;46.75;28.40;;;;;;;6.66;74.46;95468.19;6341326;22;20093;-96
2021/11/21 18:03:59;;;;;;;56.33;30.73;;;;;;;6.81;74.02;95501.44;6339145;22;20002;-95
2021/11/21 18:06:25;;;;;;;72.07;39.60;;;;;;;6.71;74.50;95472.22;6339157;22;20009;-96
2021/11/21 18:08:53;;;;;;;50.45;29.52;;;;;;;6.64;74.88;95478.69;6339130;22;20085;-95
2021/11/21 18:11:19;;;;;;;46.55;26.23;;;;;;;6.59;74.47;95465.78;6339015;22;20132;-96
2021/11/21 18:13:45;;;;;;;43.25;25.83;;;;;;;6.80;74.45;95494.53;6339069;22;20089;-95
2021/11/21 18:16:13;;;;;;;44.60;26.60;;;;;;;6.85;74.75;95489.75;6339254;22;20015;-95
2021/11/21 18:18:39;;;;;;;39.85;24.75;;;;;;;6.65;75.17;95468.63;6339217;22;20003;-96
2021/11/21 18:21:06;;;;;;;38.70;23.90;;;;;;;6.52;75.24;95444.53;6338984;22;20006;-94
2021/11/21 18:23:32;;;;;;;32.10;21.20;;;;;;;6.80;75.37;95488.41;6339052;22;20332;-95
2021/11/21 18:26:00;;;;;;;25.73;17.75;;;;;;;6.65;74.44;95445.09;6339177;22;20014;-96
2021/11/21 18:28:26;;;;;;;26.50;17.88;;;;;;;6.90;73.66;95486.44;6339080;22;20074;-94
2021/11/21 18:30:54;;;;;;;30.98;22.15;;;;;;;6.93;73.65;95482.84;6339027;22;20439;-95
2021/11/21 18:33:20;;;;;;;31.10;20.85;;;;;;;6.78;74.01;95475.38;6338485;22;20006;-96
2021/11/21 18:35:45;;;;;;;23.08;17.15;;;;;;;6.90;73.70;95481.03;6339162;22;20052;-95
2021/11/21 18:38:11;;;;;;;23.08;17.42;;;;;;;6.74;74.02;95468.63;6339015;22;20423;-95
2021/11/21 18:40:37;;;;;;;22.05;15.70;;;;;;;6.86;74.68;95481.19;6338948;22;20003;-94
2021/11/21 18:43:03;;;;;;;25.13;16.73;;;;;;;7.07;74.63;95501.81;6338806;22;20009;-94
2021/11/21 18:45:30;;;;;;;23.75;17.27;;;;;;;6.67;74.63;95445.41;6338877;22;20026;-95
2021/11/21 18:47:56;;;;;;;27.05;18.63;;;;;;;6.88;74.45;95491.53;6341083;22;19999;-95
2021/11/21 18:50:22;;;;;;;28.33;19.65;;;;;;;6.78;74.76;95471.91;6340905;22;19998;-95
2021/11/21 18:52:48;;;;;;;28.95;19.55;;;;;;;6.80;73.80;95472.19;6340711;22;20064;-95
2021/11/21 18:55:15;;;;;;;27.02;19.05;;;;;;;6.84;73.92;95480.91;6340737;22;20335;-95
2021/11/21 18:57:43;;;;;;;25.55;19.15;;;;;;;6.98;75.03;95495.72;6340783;22;20003;-95
2021/11/21 19:00:13;;;;;;;26.38;19.15;;;;;;;6.88;74.02;95483.44;6340349;22;20447;-96
2021/11/21 19:02:55;;;;;;;28.33;18.27;;;;;;;6.73;74.87;95472.53;6341280;22;20003;-96
2021/11/21 19:05:24;;;;;;;33.83;22.42;;;;;;;6.87;74.82;95498.13;6344047;22;20002;-96
2021/11/21 19:07:51;;;;;;;31.75;22.08;;;;;;;7.02;74.86;95521.34;6347322;22;20005;-96
2021/11/21 19:10:18;;;;;;;34.75;23.55;;;;;;;6.76;74.68;95480.44;6315690;22;20090;-93
2021/11/21 19:12:45;;;;;;;30.27;21.95;;;;;;;6.98;73.14;95518.06;6342165;22;20375;-93
2021/11/21 19:15:12;;;;;;;30.38;20.95;;;;;;;6.91;74.03;95502.16;6340452;22;20026;-94
2021/11/21 19:17:38;;;;;;;30.08;21.48;;;;;;;6.70;73.77;95492.31;6340794;22;20013;-93
2021/11/21 19:20:05;;;;;;;27.08;19.08;;;;;;;6.72;73.50;95487.22;6343799;22;20002;-96
2021/11/21 19:22:31;;;;;;;26.45;18.35;;;;;;;6.64;73.59;95486.03;6342699;22;20003;-95
2021/11/21 19:24:57;;;;;;;25.23;18.88;;;;;;;6.70;73.32;95481.50;6340630;22;20036;-93
2021/11/21 19:27:23;;;;;;;28.48;20.40;;;;;;;6.76;73.96;95488.53;6342336;22;20003;-94
2021/11/21 19:29:50;;;;;;;30.05;20.58;;;;;;;7.01;73.81;95532.59;6341206;22;20452;-94
2021/11/21 19:32:17;;;;;;;28.17;19.67;;;;;;;6.83;73.34;95514.50;6340653;22;20051;-93
2021/11/21 19:34:42;;;;;;;29.67;20.13;;;;;;;6.88;73.75;95513.13;6340074;22;20002;-94
2021/11/21 19:37:08;;;;;;;29.50;19.67;;;;;;;6.71;73.48;95493.81;6340384;22;20006;-94
2021/11/21 19:39:35;;;;;;;28.92;19.88;;;;;;;6.81;74.00;95500.69;6340120;22;20007;-94
2021/11/21 19:42:00;;;;;;;31.85;21.70;;;;;;;6.81;73.56;95500.69;6340047;22;20007;-92
2021/11/21 19:44:26;;;;;;;31.67;21.13;;;;;;;6.91;73.40;95515.66;6340042;22;20067;-93
2021/11/21 19:46:52;;;;;;;27.02;19.60;;;;;;;7.01;72.62;95519.09;6340096;22;20009;-93
2021/11/21 19:49:17;;;;;;;22.92;17.85;;;;;;;6.98;72.04;95528.13;6339935;22;20010;-94
2021/11/21 19:51:43;;;;;;;19.55;14.65;;;;;;;7.13;71.68;95547.88;6340358;22;20132;-94
2021/11/21 19:54:09;;;;;;;19.05;14.52;;;;;;;6.79;72.62;95517.34;6340294;22;20007;-96
2021/11/21 19:56:36;;;;;;;18.73;14.93;;;;;;;6.66;72.58;95508.69;6339919;22;20365;-95
2021/11/21 19:59:03;;;;;;;18.23;14.23;;;;;;;6.77;72.34;95511.66;6339326;22;20431;-96
2021/11/21 20:01:28;;;;;;;23.17;15.30;;;;;;;6.89;73.58;95539.66;6340033;22;20014;-96
2021/11/21 20:03:54;;;;;;;19.58;14.63;;;;;;;6.81;74.35;95528.41;6340573;22;20003;-96
2021/11/21 20:06:20;;;;;;;16.92;13.00;;;;;;;6.89;73.23;95534.28;6340367;22;20007;-96
2021/11/21 20:08:46;;;;;;;16.98;13.20;;;;;;;6.85;72.28;95536.38;6340011;22;19999;-95
2021/11/21 20:11:12;;;;;;;20.42;15.85;;;;;;;6.96;72.50;95533.94;6339898;22;20509;-96
2021/11/21 20:13:38;;;;;;;21.35;15.45;;;;;;;6.67;73.03;95510.16;6340076;22;20011;-96
2021/11/21 20:16:05;;;;;;;23.58;16.63;;;;;;;6.68;73.15;95522.44;6340138;22;20010;-96
2021/11/21 20:18:31;;;;;;;21.45;16.90;;;;;;;6.70;73.60;95538.94;6339804;22;20009;-95
2021/11/21 20:20:57;;;;;;;21.80;15.63;;;;;;;6.95;72.62;95554.06;6340120;22;20112;-96
2021/11/21 20:23:22;;;;;;;22.08;15.90;;;;;;;6.72;73.46;95539.25;6339649;22;20376;-95
2021/11/21 20:25:49;;;;;;;46.92;16.30;;;;;;;6.64;73.01;95521.84;6340019;22;20431;-96
2021/11/21 20:28:15;;;;;;;21.85;15.80;;;;;;;6.68;72.45;95541.34;6339974;22;20476;-96
2021/11/21 20:30:41;;;;;;;21.13;16.38;;;;;;;6.89;72.43;95558.56;6340088;22;20085;-95
2021/11/21 20:36:05;;;;;;;24.00;17.75;;;;;;;6.41;73.39;95530.56;6329755;22;20033;-96
2021/11/21 20:38:31;;;;;;;26.80;19.90;;;;;;;6.49;73.58;95548.69;6339482;22;20078;-96
2021/11/21 20:40:57;;;;;;;32.17;25.30;;;;;;;6.36;72.70;95531.16;6339692;22;20427;-95
2021/11/21 20:43:22;;;;;;;30.05;23.67;;;;;;;6.54;73.84;95553.47;6339651;22;20086;-96
2021/11/21 20:45:48;;;;;;;28.10;20.83;;;;;;;6.72;73.63;95579.72;6340516;22;20086;-95
2021/11/21 20:48:14;;;;;;;25.25;20.00;;;;;;;6.43;74.08;95541.66;6340096;22;20068;-96
2021/11/21 20:50:40;;;;;;;26.25;19.73;;;;;;;6.28;73.83;95526.06;6339903;22;20002;-95
2021/11/21 20:53:09;;;;;;;24.27;19.23;;;;;;;6.29;74.63;95532.97;6339228;22;20002;-94
2021/11/21 20:55:36;;;;;;;25.05;18.42;;;;;;;6.37;73.49;95525.31;6339699;22;20002;-95
2021/11/21 20:58:02;;;;;;;25.77;19.95;;;;;;;6.47;74.39;95558.44;6339637;22;20007;-96
2021/11/21 21:00:28;;;;;;;23.98;18.27;;;;;;;6.25;73.87;95534.31;6339323;22;20477;-95
2021/11/21 21:02:54;;;;;;;23.27;17.95;;;;;;;6.35;74.71;95543.91;6339497;22;20003;-95
2021/11/21 21:05:19;;;;;;;23.55;17.77;;;;;;;6.40;74.95;95550.66;6340243;22;20010;-94
2021/11/21 21:07:45;;;;;;;25.35;17.17;;;;;;;6.46;74.59;95556.94;6340304;22;20003;-94
2021/11/21 21:10:12;;;;;;;24.05;18.23;;;;;;;6.65;73.70;95574.63;6339512;22;20460;-96
2021/11/21 21:12:39;;;;;;;25.00;18.65;;;;;;;6.42;74.33;95559.03;6339701;22;20007;-95
2021/11/21 21:15:06;;;;;;;24.70;18.17;;;;;;;6.20;75.02;95521.41;6339603;22;20006;-96
2021/11/21 21:17:32;;;;;;;23.13;17.70;;;;;;;6.47;74.29;95563.84;6340387;22;20006;-95
2021/11/21 21:19:57;;;;;;;22.02;17.42;;;;;;;6.25;74.84;95535.03;6339783;22;20007;-96
2021/11/21 21:22:23;;;;;;;27.30;18.38;;;;;;;6.22;74.68;95533.22;6339582;22;20060;-94
2021/11/21 21:24:49;;;;;;;24.50;18.52;;;;;;;6.17;75.42;95533.81;6339255;22;20002;-94
2021/11/21 21:27:14;;;;;;;28.02;18.60;;;;;;;6.34;75.34;95560.50;6338952;22;20427;-95
2021/11/21 21:29:40;;;;;;;25.02;19.23;;;;;;;6.21;75.15;95547.91;6339371;22;20372;-96
2021/11/21 21:32:06;;;;;;;28.75;20.63;;;;;;;6.35;75.22;95557.38;6339344;22;20423;-93
2021/11/21 21:34:34;;;;;;;29.52;21.45;;;;;;;6.37;75.43;95560.38;6339245;22;20054;-94
2021/11/21 21:37:01;;;;;;;28.23;20.95;;;;;;;6.54;75.62;95582.41;6339279;22;20105;-94
2021/11/21 21:39:26;;;;;;;30.20;22.42;;;;;;;6.25;75.52;95535.03;6339235;22;20435;-94
2021/11/21 21:41:52;;;;;;;33.28;24.10;;;;;;;6.23;75.63;95542.84;6339166;22;20011;-95
2021/11/21 21:44:18;;;;;;;32.53;22.67;;;;;;;6.34;75.49;95563.22;6339130;22;20386;-95
2021/11/21 21:46:45;;;;;;;30.85;22.52;;;;;;;6.20;75.63;95538.34;6339115;22;20006;-96
2021/11/21 21:49:15;;;;;;;31.05;22.00;;;;;;;6.48;75.51;95581.50;6339438;22;20316;-93
2021/11/21 21:51:42;;;;;;;29.77;21.42;;;;;;;6.20;75.39;95538.34;6339222;22;20006;-95
2021/11/21 21:54:08;;;;;;;30.35;22.13;;;;;;;6.16;75.88;95543.13;6339090;22;20009;-95
2021/11/21 21:56:33;;;;;;;31.80;21.73;;;;;;;6.44;76.58;95589.00;6339225;22;20006;-95
2021/11/21 21:58:59;;;;;;;30.35;21.42;;;;;;;6.25;76.46;95545.84;6338677;22;20053;-96
2021/11/21 22:01:24;;;;;;;29.45;21.55;;;;;;;6.39;76.05;95558.00;6339201;22;20006;-96
2021/11/21 22:10:37;;;;;;;30.63;22.45;;;;;;;6.11;75.73;95505.97;6341059;22;20127;-96
2021/11/21 22:13:04;;;;;;;29.42;22.10;;;;;;;6.49;74.89;95559.47;6339373;22;20095;-96
2021/11/21 22:15:31;;;;;;;32.72;22.85;;;;;;;6.53;75.62;95573.56;6339270;22;20010;-96
2021/11/21 22:17:57;;;;;;;30.10;22.23;;;;;;;6.29;76.61;95551.84;6339007;22;20029;-96
2021/11/21 22:20:24;;;;;;;31.83;22.30;;;;;;;6.49;76.64;95585.69;6339023;22;20014;-95
2021/11/21 22:22:50;;;;;;;31.73;22.75;;;;;;;6.24;76.59;95538.19;6338964;22;20014;-96
2021/11/21 22:25:18;;;;;;;29.15;20.48;;;;;;;6.64;76.37;95569.69;6339327;22;20069;-96
2021/11/21 22:27:44;;;;;;;32.30;20.55;;;;;;;6.81;76.25;95578.97;6339448;22;19998;-95
2021/11/21 22:30:11;;;;;;;28.02;21.50;;;;;;;6.67;77.31;95568.78;6339187;22;20014;-96
2021/11/21 22:32:37;;;;;;;33.45;21.80;;;;;;;6.62;77.05;95556.63;6339152;22;20002;-96
2021/11/21 22:35:04;;;;;;;39.63;21.20;;;;;;;6.68;75.81;95565.63;6339128;22;20059;-96
2021/11/21 22:37:29;;;;;;;29.75;21.17;;;;;;;6.79;76.56;95576.72;6340564;22;19998;-96
2021/11/21 22:39:55;;;;;;;28.63;21.27;;;;;;;6.68;75.63;95552.13;6339517;22;20484;-96
2021/11/21 22:42:21;;;;;;;29.92;20.92;;;;;;;6.81;75.30;95579.72;6339360;22;20014;-96
2021/11/21 22:44:47;;;;;;;29.02;20.35;;;;;;;6.46;75.71;95556.94;6339157;22;20428;-96